sensor_id;sensor_type;location;lat;lon;timestamp;pressure;altitude;pressure_sealevel;temperature;humidity
37068;BME280;22982;42.848;25.468;2024-02-26T00:01:11;95889.16;;;6.56;100.00
37068;BME280;22982;42.848;25.468;2024-02-26T00:06:13;95880.13;;;6.46;100.00
37068;BME280;22982;42.848;25.468;2024-02-26T00:11:16;95891.28;;;6.48;100.00
37068;BME280;22982;42.848;25.468;2024-02-26T00:16:18;95868.41;;;6.55;100.00
37068;BME280;22982;42.848;25.468;2024-02-26T00:21:22;95885.34;;;6.63;100.00
37068;BME280;22982;42.848;25.468;2024-02-26T00:26:25;95871.53;;;6.61;100.00
37068;BME280;22982;42.848;25.468;2024-02-26T00:31:28;95870.94;;;6.56;100.00
37068;BME280;22982;42.848;25.468;2024-02-26T00:36:30;95865.69;;;6.74;100.00
37068;BME280;22982;42.848;25.468;2024-02-26T00:41:33;95848.53;;;6.69;100.00
37068;BME280;22982;42.848;25.468;2024-02-26T00:46:38;95843.66;;;6.63;100.00
37068;BME280;22982;42.848;25.468;2024-02-26T00:51:40;95837.34;;;6.67;100.00
37068;BME280;22982;42.848;25.468;2024-02-26T00:56:46;95829.19;;;6.74;100.00
37068;BME280;22982;42.848;25.468;2024-02-26T01:01:49;95809.22;;;6.74;100.00
37068;BME280;22982;42.848;25.468;2024-02-26T01:06:51;95821.00;;;6.81;100.00
37068;BME280;22982;42.848;25.468;2024-02-26T01:11:54;95821.50;;;6.88;100.00
37068;BME280;22982;42.848;25.468;2024-02-26T01:16:57;95807.09;;;7.14;100.00
37068;BME280;22982;42.848;25.468;2024-02-26T01:21:59;95793.47;;;7.25;100.00
37068;BME280;22982;42.848;25.468;2024-02-26T01:27:03;95786.41;;;7.43;100.00
37068;BME280;22982;42.848;25.468;2024-02-26T01:32:05;95776.44;;;7.50;100.00
37068;BME280;22982;42.848;25.468;2024-02-26T01:37:09;95777.72;;;7.89;100.00
37068;BME280;22982;42.848;25.468;2024-02-26T01:42:11;95775.19;;;8.17;100.00
37068;BME280;22982;42.848;25.468;2024-02-26T01:47:13;95772.84;;;8.57;100.00
37068;BME280;22982;42.848;25.468;2024-02-26T01:52:17;95752.13;;;8.83;100.00
37068;BME280;22982;42.848;25.468;2024-02-26T01:57:20;95746.03;;;9.11;100.00
37068;BME280;22982;42.848;25.468;2024-02-26T02:02:23;95748.22;;;9.59;100.00
37068;BME280;22982;42.848;25.468;2024-02-26T02:07:26;95746.22;;;9.90;100.00
37068;BME280;22982;42.848;25.468;2024-02-26T02:12:30;95737.88;;;9.98;100.00
37068;BME280;22982;42.848;25.468;2024-02-26T02:17:34;95754.78;;;9.79;100.00
37068;BME280;22982;42.848;25.468;2024-02-26T02:22:38;95739.63;;;9.57;100.00
37068;BME280;22982;42.848;25.468;2024-02-26T02:27:42;95755.69;;;9.38;100.00
37068;BME280;22982;42.848;25.468;2024-02-26T02:32:45;95749.28;;;9.15;100.00
37068;BME280;22982;42.848;25.468;2024-02-26T02:37:53;95769.00;;;9.06;100.00
37068;BME280;22982;42.848;25.468;2024-02-26T02:42:55;95765.47;;;9.07;100.00
37068;BME280;22982;42.848;25.468;2024-02-26T02:48:02;95771.16;;;8.99;100.00
37068;BME280;22982;42.848;25.468;2024-02-26T02:53:05;95788.53;;;8.72;100.00
37068;BME280;22982;42.848;25.468;2024-02-26T02:58:07;95776.41;;;8.71;100.00
37068;BME280;22982;42.848;25.468;2024-02-26T03:03:18;95781.75;;;8.69;100.00
37068;BME280;22982;42.848;25.468;2024-02-26T03:08:20;95787.63;;;8.87;100.00
37068;BME280;22982;42.848;25.468;2024-02-26T03:13:30;95782.00;;;8.79;100.00
37068;BME280;22982;42.848;25.468;2024-02-26T03:18:32;95787.41;;;8.76;100.00
37068;BME280;22982;42.848;25.468;2024-02-26T03:23:36;95800.31;;;8.79;100.00
37068;BME280;22982;42.848;25.468;2024-02-26T03:28:38;95787.88;;;8.68;100.00
37068;BME280;22982;42.848;25.468;2024-02-26T03:33:40;95772.28;;;8.67;100.00
37068;BME280;22982;42.848;25.468;2024-02-26T03:38:43;95783.22;;;8.59;100.00
37068;BME280;22982;42.848;25.468;2024-02-26T03:43:46;95777.34;;;8.55;100.00
37068;BME280;22982;42.848;25.468;2024-02-26T03:48:48;95767.72;;;8.70;100.00
37068;BME280;22982;42.848;25.468;2024-02-26T03:53:51;95762.31;;;8.59;100.00
37068;BME280;22982;42.848;25.468;2024-02-26T03:58:54;95776.03;;;8.18;100.00
37068;BME280;22982;42.848;25.468;2024-02-26T04:03:57;95777.66;;;8.35;100.00
37068;BME280;22982;42.848;25.468;2024-02-26T04:08:59;95785.13;;;8.41;100.00
37068;BME280;22982;42.848;25.468;2024-02-26T04:14:02;95787.13;;;8.52;100.00
37068;BME280;22982;42.848;25.468;2024-02-26T04:19:06;95788.34;;;8.46;100.00
37068;BME280;22982;42.848;25.468;2024-02-26T04:24:09;95791.47;;;8.37;100.00
37068;BME280;22982;42.848;25.468;2024-02-26T04:29:15;95785.34;;;8.52;100.00
37068;BME280;22982;42.848;25.468;2024-02-26T04:34:17;95774.34;;;8.61;100.00
37068;BME280;22982;42.848;25.468;2024-02-26T04:39:20;95799.63;;;8.47;100.00
37068;BME280;22982;42.848;25.468;2024-02-26T04:44:23;95794.50;;;8.59;100.00
37068;BME280;22982;42.848;25.468;2024-02-26T04:49:26;95804.06;;;8.75;100.00
37068;BME280;22982;42.848;25.468;2024-02-26T04:54:29;95788.94;;;8.66;100.00
37068;BME280;22982;42.848;25.468;2024-02-26T04:59:31;95790.88;;;8.62;100.00
37068;BME280;22982;42.848;25.468;2024-02-26T05:04:38;95791.25;;;8.70;100.00
37068;BME280;22982;42.848;25.468;2024-02-26T05:09:41;95791.34;;;8.69;100.00
37068;BME280;22982;42.848;25.468;2024-02-26T05:14:46;95794.16;;;8.66;100.00
37068;BME280;22982;42.848;25.468;2024-02-26T05:19:48;95802.34;;;8.59;100.00
37068;BME280;22982;42.848;25.468;2024-02-26T05:24:51;95798.88;;;8.45;100.00
37068;BME280;22982;42.848;25.468;2024-02-26T05:29:54;95797.97;;;8.60;100.00
37068;BME280;22982;42.848;25.468;2024-02-26T05:34:56;95796.22;;;8.89;100.00
37068;BME280;22982;42.848;25.468;2024-02-26T05:40:02;95791.03;;;9.31;100.00
37068;BME280;22982;42.848;25.468;2024-02-26T05:45:07;95809.75;;;9.52;100.00
37068;BME280;22982;42.848;25.468;2024-02-26T05:50:15;95820.41;;;9.63;100.00
37068;BME280;22982;42.848;25.468;2024-02-26T05:55:17;95829.66;;;9.54;100.00
37068;BME280;22982;42.848;25.468;2024-02-26T06:00:21;95842.16;;;9.64;100.00
37068;BME280;22982;42.848;25.468;2024-02-26T06:05:23;95848.38;;;9.75;100.00
37068;BME280;22982;42.848;25.468;2024-02-26T06:10:25;95834.94;;;10.22;100.00
37068;BME280;22982;42.848;25.468;2024-02-26T06:15:30;95839.88;;;10.66;100.00
37068;BME280;22982;42.848;25.468;2024-02-26T06:20:33;95838.91;;;11.32;100.00
37068;BME280;22982;42.848;25.468;2024-02-26T06:25:38;95847.09;;;11.77;100.00
37068;BME280;22982;42.848;25.468;2024-02-26T06:30:41;95830.13;;;12.18;100.00
37068;BME280;22982;42.848;25.468;2024-02-26T06:35:43;95830.09;;;12.89;100.00
37068;BME280;22982;42.848;25.468;2024-02-26T06:40:46;95837.69;;;13.50;96.67
37068;BME280;22982;42.848;25.468;2024-02-26T06:45:48;95836.22;;;14.12;90.39
37068;BME280;22982;42.848;25.468;2024-02-26T06:50:51;95825.09;;;14.41;82.18
37068;BME280;22982;42.848;25.468;2024-02-26T06:55:54;95827.94;;;14.70;77.86
37068;BME280;22982;42.848;25.468;2024-02-26T07:00:56;95822.59;;;14.81;70.95
37068;BME280;22982;42.848;25.468;2024-02-26T07:06:00;95816.34;;;15.03;71.31
37068;BME280;22982;42.848;25.468;2024-02-26T07:11:03;95810.34;;;15.32;62.88
37068;BME280;22982;42.848;25.468;2024-02-26T07:16:15;95825.75;;;15.58;59.58
37068;BME280;22982;42.848;25.468;2024-02-26T07:21:18;95823.19;;;15.46;56.36
37068;BME280;22982;42.848;25.468;2024-02-26T07:26:23;95828.97;;;16.21;53.68
37068;BME280;22982;42.848;25.468;2024-02-26T07:31:28;95820.06;;;17.28;50.07
37068;BME280;22982;42.848;25.468;2024-02-26T07:36:30;95805.44;;;17.79;47.14
37068;BME280;22982;42.848;25.468;2024-02-26T07:41:33;95813.41;;;18.61;45.49
37068;BME280;22982;42.848;25.468;2024-02-26T07:46:36;95803.75;;;19.30;41.68
37068;BME280;22982;42.848;25.468;2024-02-26T07:51:38;95794.69;;;19.76;39.38
37068;BME280;22982;42.848;25.468;2024-02-26T07:56:41;95799.06;;;20.01;38.57
37068;BME280;22982;42.848;25.468;2024-02-26T08:01:43;95775.16;;;20.18;38.05
37068;BME280;22982;42.848;25.468;2024-02-26T08:06:53;95784.97;;;21.08;36.36
37068;BME280;22982;42.848;25.468;2024-02-26T08:11:56;95774.84;;;20.95;35.01
37068;BME280;22982;42.848;25.468;2024-02-26T08:16:58;95778.19;;;20.89;34.77
37068;BME280;22982;42.848;25.468;2024-02-26T08:22:02;95800.63;;;19.01;36.05
37068;BME280;22982;42.848;25.468;2024-02-26T08:27:06;95794.34;;;18.66;35.95
37068;BME280;22982;42.848;25.468;2024-02-26T08:32:08;95787.16;;;18.04;36.78
37068;BME280;22982;42.848;25.468;2024-02-26T08:37:13;95793.13;;;17.88;37.29
37068;BME280;22982;42.848;25.468;2024-02-26T08:42:15;95782.94;;;18.11;36.94
37068;BME280;22982;42.848;25.468;2024-02-26T08:47:18;95794.75;;;17.99;36.90
37068;BME280;22982;42.848;25.468;2024-02-26T08:52:21;95772.53;;;18.54;36.49
37068;BME280;22982;42.848;25.468;2024-02-26T08:57:25;95791.34;;;19.05;35.87
37068;BME280;22982;42.848;25.468;2024-02-26T09:02:30;95764.84;;;19.56;32.87
37068;BME280;22982;42.848;25.468;2024-02-26T09:07:32;95777.28;;;18.86;33.24
37068;BME280;22982;42.848;25.468;2024-02-26T09:12:37;95775.25;;;19.41;32.78
37068;BME280;22982;42.848;25.468;2024-02-26T09:17:43;95783.91;;;19.17;32.55
37068;BME280;22982;42.848;25.468;2024-02-26T09:22:46;95786.59;;;18.72;33.11
37068;BME280;22982;42.848;25.468;2024-02-26T09:27:54;95805.56;;;18.78;33.44
37068;BME280;22982;42.848;25.468;2024-02-26T09:32:57;95797.47;;;19.31;33.22
37068;BME280;22982;42.848;25.468;2024-02-26T09:37:59;95792.41;;;19.97;33.09
37068;BME280;22982;42.848;25.468;2024-02-26T09:43:05;95793.16;;;20.40;31.41
37068;BME280;22982;42.848;25.468;2024-02-26T09:48:08;95786.91;;;19.13;33.37
37068;BME280;22982;42.848;25.468;2024-02-26T09:53:14;95779.59;;;19.50;33.25
37068;BME280;22982;42.848;25.468;2024-02-26T09:58:17;95761.03;;;20.17;32.77
37068;BME280;22982;42.848;25.468;2024-02-26T10:03:22;95766.69;;;20.22;32.75
37068;BME280;22982;42.848;25.468;2024-02-26T10:08:28;95777.69;;;19.00;34.20
37068;BME280;22982;42.848;25.468;2024-02-26T10:13:37;95780.50;;;18.36;34.47
37068;BME280;22982;42.848;25.468;2024-02-26T10:23:53;95752.84;;;17.57;35.49
37068;BME280;22982;42.848;25.468;2024-02-26T10:28:59;95758.84;;;17.77;35.01
37068;BME280;22982;42.848;25.468;2024-02-26T10:34:04;95741.91;;;17.88;34.63
37068;BME280;22982;42.848;25.468;2024-02-26T10:39:07;95740.41;;;18.65;34.52
37068;BME280;22982;42.848;25.468;2024-02-26T10:44:11;95714.66;;;18.84;33.37
37068;BME280;22982;42.848;25.468;2024-02-26T10:49:19;95706.09;;;18.72;33.75
37068;BME280;22982;42.848;25.468;2024-02-26T10:54:26;95714.06;;;18.72;31.75
37068;BME280;22982;42.848;25.468;2024-02-26T10:59:32;95692.47;;;18.67;31.75
37068;BME280;22982;42.848;25.468;2024-02-26T11:04:38;95713.50;;;18.60;31.85
37068;BME280;22982;42.848;25.468;2024-02-26T11:09:41;95710.31;;;18.12;31.86
37068;BME280;22982;42.848;25.468;2024-02-26T11:14:49;95698.78;;;18.22;32.70
37068;BME280;22982;42.848;25.468;2024-02-26T11:19:58;95681.75;;;18.06;32.49
37068;BME280;22982;42.848;25.468;2024-02-26T11:25:05;95686.41;;;18.30;32.48
37068;BME280;22982;42.848;25.468;2024-02-26T11:30:09;95687.81;;;17.98;32.11
37068;BME280;22982;42.848;25.468;2024-02-26T11:35:15;95692.22;;;17.90;32.02
37068;BME280;22982;42.848;25.468;2024-02-26T11:40:19;95690.84;;;17.22;32.30
37068;BME280;22982;42.848;25.468;2024-02-26T11:50:55;95697.59;;;17.07;31.89
37068;BME280;22982;42.848;25.468;2024-02-26T12:01:42;95701.00;;;16.89;32.15
37068;BME280;22982;42.848;25.468;2024-02-26T12:06:50;95702.50;;;17.01;32.34
37068;BME280;22982;42.848;25.468;2024-02-26T12:11:54;95688.47;;;16.91;32.51
37068;BME280;22982;42.848;25.468;2024-02-26T12:17:01;95698.47;;;17.25;32.02
37068;BME280;22982;42.848;25.468;2024-02-26T12:22:03;95681.41;;;17.10;32.37
37068;BME280;22982;42.848;25.468;2024-02-26T12:27:10;95678.84;;;17.18;32.40
37068;BME280;22982;42.848;25.468;2024-02-26T12:32:12;95679.97;;;17.15;32.94
37068;BME280;22982;42.848;25.468;2024-02-26T12:37:15;95695.34;;;17.12;34.06
37068;BME280;22982;42.848;25.468;2024-02-26T12:42:18;95691.19;;;17.09;33.64
37068;BME280;22982;42.848;25.468;2024-02-26T12:47:21;95700.19;;;16.79;33.81
37068;BME280;22982;42.848;25.468;2024-02-26T12:52:26;95694.22;;;16.77;34.57
37068;BME280;22982;42.848;25.468;2024-02-26T12:57:31;95698.69;;;16.67;35.31
37068;BME280;22982;42.848;25.468;2024-02-26T13:02:37;95700.88;;;16.81;35.12
37068;BME280;22982;42.848;25.468;2024-02-26T13:07:44;95707.69;;;16.93;35.49
37068;BME280;22982;42.848;25.468;2024-02-26T13:12:54;95707.38;;;16.96;35.31
37068;BME280;22982;42.848;25.468;2024-02-26T13:17:56;95697.13;;;16.83;36.13
37068;BME280;22982;42.848;25.468;2024-02-26T13:23:07;95703.81;;;16.78;36.14
37068;BME280;22982;42.848;25.468;2024-02-26T13:28:17;95721.84;;;16.64;36.78
37068;BME280;22982;42.848;25.468;2024-02-26T13:33:22;95701.00;;;16.89;36.47
37068;BME280;22982;42.848;25.468;2024-02-26T13:38:28;95716.88;;;16.89;36.65
37068;BME280;22982;42.848;25.468;2024-02-26T13:43:30;95717.97;;;16.96;37.30
37068;BME280;22982;42.848;25.468;2024-02-26T13:48:34;95717.00;;;16.97;37.30
37068;BME280;22982;42.848;25.468;2024-02-26T13:53:36;95724.41;;;16.94;37.63
37068;BME280;22982;42.848;25.468;2024-02-26T13:58:43;95722.63;;;16.75;38.47
37068;BME280;22982;42.848;25.468;2024-02-26T14:03:45;95725.84;;;16.69;39.33
37068;BME280;22982;42.848;25.468;2024-02-26T14:08:49;95728.97;;;16.44;40.38
37068;BME280;22982;42.848;25.468;2024-02-26T14:13:52;95745.69;;;16.45;41.29
37068;BME280;22982;42.848;25.468;2024-02-26T14:18:56;95753.91;;;16.52;41.29
37068;BME280;22982;42.848;25.468;2024-02-26T14:23:58;95745.97;;;16.42;42.17
37068;BME280;22982;42.848;25.468;2024-02-26T14:29:26;95759.91;;;16.34;43.22
37068;BME280;22982;42.848;25.468;2024-02-26T14:34:28;95742.22;;;16.25;43.04
37068;BME280;22982;42.848;25.468;2024-02-26T14:39:32;95757.69;;;16.10;43.23
37068;BME280;22982;42.848;25.468;2024-02-26T14:44:34;95752.94;;;15.84;43.57
37068;BME280;22982;42.848;25.468;2024-02-26T14:49:37;95772.56;;;15.92;44.13
37068;BME280;22982;42.848;25.468;2024-02-26T14:54:40;95783.81;;;15.84;44.92
37068;BME280;22982;42.848;25.468;2024-02-26T14:59:43;95774.63;;;15.78;45.13
37068;BME280;22982;42.848;25.468;2024-02-26T15:04:47;95773.69;;;15.79;45.90
37068;BME280;22982;42.848;25.468;2024-02-26T15:09:50;95783.81;;;15.74;47.25
37068;BME280;22982;42.848;25.468;2024-02-26T15:14:53;95782.91;;;15.64;48.38
37068;BME280;22982;42.848;25.468;2024-02-26T15:19:55;95782.91;;;15.54;52.59
37068;BME280;22982;42.848;25.468;2024-02-26T15:24:59;95777.09;;;15.20;56.95
37068;BME280;22982;42.848;25.468;2024-02-26T15:30:02;95788.59;;;15.09;60.94
37068;BME280;22982;42.848;25.468;2024-02-26T15:35:06;95789.38;;;15.00;60.56
37068;BME280;22982;42.848;25.468;2024-02-26T15:40:09;95789.19;;;14.70;68.33
37068;BME280;22982;42.848;25.468;2024-02-26T15:45:15;95801.22;;;14.42;66.88
37068;BME280;22982;42.848;25.468;2024-02-26T15:50:18;95802.47;;;13.94;72.84
37068;BME280;22982;42.848;25.468;2024-02-26T15:55:20;95794.19;;;13.44;78.60
37068;BME280;22982;42.848;25.468;2024-02-26T16:00:24;95814.06;;;13.14;83.75
37068;BME280;22982;42.848;25.468;2024-02-26T16:05:26;95813.53;;;12.64;84.95
37068;BME280;22982;42.848;25.468;2024-02-26T16:10:28;95819.91;;;12.37;89.35
37068;BME280;22982;42.848;25.468;2024-02-26T16:15:33;95831.72;;;12.32;92.26
37068;BME280;22982;42.848;25.468;2024-02-26T16:20:37;95831.53;;;12.11;95.60
37068;BME280;22982;42.848;25.468;2024-02-26T16:25:40;95838.88;;;11.94;97.81
37068;BME280;22982;42.848;25.468;2024-02-26T16:30:42;95844.53;;;11.51;100.00
37068;BME280;22982;42.848;25.468;2024-02-26T16:35:48;95863.78;;;11.39;100.00
37068;BME280;22982;42.848;25.468;2024-02-26T16:40:50;95870.06;;;11.23;100.00
37068;BME280;22982;42.848;25.468;2024-02-26T16:45:53;95873.69;;;10.97;100.00
37068;BME280;22982;42.848;25.468;2024-02-26T16:50:56;95864.81;;;10.59;100.00
37068;BME280;22982;42.848;25.468;2024-02-26T16:55:58;95882.44;;;10.57;100.00
37068;BME280;22982;42.848;25.468;2024-02-26T17:01:13;95876.13;;;10.47;100.00
37068;BME280;22982;42.848;25.468;2024-02-26T17:06:16;95888.25;;;10.35;100.00
37068;BME280;22982;42.848;25.468;2024-02-26T17:11:19;95882.97;;;10.08;100.00
37068;BME280;22982;42.848;25.468;2024-02-26T17:16:22;95886.50;;;9.94;100.00
37068;BME280;22982;42.848;25.468;2024-02-26T17:21:25;95895.88;;;9.84;100.00
37068;BME280;22982;42.848;25.468;2024-02-26T17:26:27;95887.88;;;9.72;100.00
37068;BME280;22982;42.848;25.468;2024-02-26T17:31:31;95899.75;;;9.64;100.00
37068;BME280;22982;42.848;25.468;2024-02-26T17:36:33;95899.69;;;9.36;100.00
37068;BME280;22982;42.848;25.468;2024-02-26T17:41:37;95912.22;;;9.31;100.00
37068;BME280;22982;42.848;25.468;2024-02-26T17:46:40;95924.06;;;9.23;100.00
37068;BME280;22982;42.848;25.468;2024-02-26T17:51:45;95927.50;;;9.09;100.00
37068;BME280;22982;42.848;25.468;2024-02-26T17:56:48;95936.47;;;9.05;100.00
37068;BME280;22982;42.848;25.468;2024-02-26T18:01:54;95934.41;;;8.95;100.00
37068;BME280;22982;42.848;25.468;2024-02-26T18:06:56;95930.44;;;8.74;100.00
37068;BME280;22982;42.848;25.468;2024-02-26T18:11:59;95938.38;;;8.72;100.00
37068;BME280;22982;42.848;25.468;2024-02-26T18:17:02;95933.97;;;8.58;100.00
37068;BME280;22982;42.848;25.468;2024-02-26T18:22:06;95938.31;;;8.58;100.00
37068;BME280;22982;42.848;25.468;2024-02-26T18:27:09;95945.41;;;8.40;100.00
37068;BME280;22982;42.848;25.468;2024-02-26T18:32:14;95946.03;;;8.29;100.00
37068;BME280;22982;42.848;25.468;2024-02-26T18:37:18;95944.19;;;8.31;100.00
37068;BME280;22982;42.848;25.468;2024-02-26T18:42:20;95958.75;;;8.19;100.00
37068;BME280;22982;42.848;25.468;2024-02-26T18:47:23;95960.88;;;8.13;100.00
37068;BME280;22982;42.848;25.468;2024-02-26T18:52:26;95960.72;;;8.00;100.00
37068;BME280;22982;42.848;25.468;2024-02-26T18:57:29;95962.91;;;7.92;100.00
37068;BME280;22982;42.848;25.468;2024-02-26T19:02:32;95974.63;;;8.00;100.00
37068;BME280;22982;42.848;25.468;2024-02-26T19:07:34;95985.88;;;7.69;100.00
37068;BME280;22982;42.848;25.468;2024-02-26T19:12:42;95983.44;;;7.82;100.00
37068;BME280;22982;42.848;25.468;2024-02-26T19:17:46;95990.81;;;7.58;100.00
37068;BME280;22982;42.848;25.468;2024-02-26T19:22:50;95996.94;;;7.57;100.00
37068;BME280;22982;42.848;25.468;2024-02-26T19:27:54;95992.66;;;7.56;100.00
37068;BME280;22982;42.848;25.468;2024-02-26T19:32:57;95995.84;;;7.45;100.00
37068;BME280;22982;42.848;25.468;2024-02-26T19:38:00;95991.38;;;7.47;100.00
37068;BME280;22982;42.848;25.468;2024-02-26T19:43:02;95992.81;;;7.19;100.00
37068;BME280;22982;42.848;25.468;2024-02-26T19:48:07;95996.66;;;7.12;100.00
37068;BME280;22982;42.848;25.468;2024-02-26T19:53:09;95995.50;;;7.18;100.00
37068;BME280;22982;42.848;25.468;2024-02-26T19:58:13;96004.22;;;7.17;100.00
37068;BME280;22982;42.848;25.468;2024-02-26T20:03:16;96005.19;;;6.98;100.00
37068;BME280;22982;42.848;25.468;2024-02-26T20:08:19;96008.41;;;6.68;100.00
37068;BME280;22982;42.848;25.468;2024-02-26T20:13:21;96009.91;;;6.90;100.00
37068;BME280;22982;42.848;25.468;2024-02-26T20:18:30;96007.00;;;6.79;100.00
37068;BME280;22982;42.848;25.468;2024-02-26T20:23:32;96012.69;;;6.87;100.00
37068;BME280;22982;42.848;25.468;2024-02-26T20:28:36;96022.94;;;6.90;100.00
37068;BME280;22982;42.848;25.468;2024-02-26T20:33:39;96035.81;;;6.76;100.00
37068;BME280;22982;42.848;25.468;2024-02-26T20:38:44;96033.59;;;6.68;100.00
37068;BME280;22982;42.848;25.468;2024-02-26T20:43:47;96038.97;;;6.65;100.00
37068;BME280;22982;42.848;25.468;2024-02-26T20:48:50;96048.44;;;6.66;100.00
37068;BME280;22982;42.848;25.468;2024-02-26T20:53:53;96049.59;;;6.60;100.00
37068;BME280;22982;42.848;25.468;2024-02-26T20:58:55;96069.53;;;6.61;100.00
37068;BME280;22982;42.848;25.468;2024-02-26T21:04:00;96062.16;;;6.33;100.00
37068;BME280;22982;42.848;25.468;2024-02-26T21:09:06;96072.34;;;6.38;100.00
37068;BME280;22982;42.848;25.468;2024-02-26T21:14:09;96065.56;;;6.16;100.00
37068;BME280;22982;42.848;25.468;2024-02-26T21:19:13;96073.66;;;6.10;100.00
37068;BME280;22982;42.848;25.468;2024-02-26T21:24:16;96079.78;;;5.88;100.00
37068;BME280;22982;42.848;25.468;2024-02-26T21:29:19;96078.00;;;5.89;100.00
37068;BME280;22982;42.848;25.468;2024-02-26T21:34:21;96080.97;;;6.02;100.00
37068;BME280;22982;42.848;25.468;2024-02-26T21:39:24;96090.41;;;5.84;100.00
37068;BME280;22982;42.848;25.468;2024-02-26T21:44:27;96093.19;;;5.79;100.00
37068;BME280;22982;42.848;25.468;2024-02-26T21:49:29;96103.38;;;5.65;100.00
37068;BME280;22982;42.848;25.468;2024-02-26T21:54:33;96099.16;;;5.42;100.00
37068;BME280;22982;42.848;25.468;2024-02-26T21:59:37;96089.19;;;5.31;100.00
37068;BME280;22982;42.848;25.468;2024-02-26T22:04:40;96092.13;;;5.44;100.00
37068;BME280;22982;42.848;25.468;2024-02-26T22:09:42;96101.75;;;5.42;100.00
37068;BME280;22982;42.848;25.468;2024-02-26T22:14:45;96098.81;;;5.29;100.00
37068;BME280;22982;42.848;25.468;2024-02-26T22:19:47;96108.84;;;5.17;100.00
37068;BME280;22982;42.848;25.468;2024-02-26T22:24:50;96119.13;;;4.98;100.00
37068;BME280;22982;42.848;25.468;2024-02-26T22:29:53;96110.50;;;4.98;100.00
37068;BME280;22982;42.848;25.468;2024-02-26T22:34:55;96119.00;;;5.02;100.00
37068;BME280;22982;42.848;25.468;2024-02-26T22:39:59;96109.81;;;5.15;100.00
37068;BME280;22982;42.848;25.468;2024-02-26T22:45:02;96119.13;;;5.21;100.00
37068;BME280;22982;42.848;25.468;2024-02-26T22:50:05;96110.53;;;5.18;100.00
37068;BME280;22982;42.848;25.468;2024-02-26T22:55:11;96129.38;;;5.24;100.00
37068;BME280;22982;42.848;25.468;2024-02-26T23:00:14;96127.69;;;5.23;100.00
37068;BME280;22982;42.848;25.468;2024-02-26T23:05:34;96134.66;;;5.22;100.00
37068;BME280;22982;42.848;25.468;2024-02-26T23:10:36;96123.38;;;5.22;100.00
37068;BME280;22982;42.848;25.468;2024-02-26T23:15:40;96117.69;;;5.13;100.00
37068;BME280;22982;42.848;25.468;2024-02-26T23:20:42;96138.31;;;5.16;100.00
37068;BME280;22982;42.848;25.468;2024-02-26T23:25:45;96127.13;;;4.94;100.00
37068;BME280;22982;42.848;25.468;2024-02-26T23:30:48;96136.56;;;4.74;100.00
37068;BME280;22982;42.848;25.468;2024-02-26T23:35:50;96147.19;;;4.68;100.00
37068;BME280;22982;42.848;25.468;2024-02-26T23:40:57;96155.72;;;4.72;100.00
37068;BME280;22982;42.848;25.468;2024-02-26T23:46:00;96150.31;;;4.54;100.00
37068;BME280;22982;42.848;25.468;2024-02-26T23:51:02;96149.63;;;4.49;100.00
37068;BME280;22982;42.848;25.468;2024-02-26T23:56:06;96163.06;;;4.37;100.00
